createdAt,value
2022-08-22T00:01:23.854Z,99.90
2022-08-22T00:02:45.527Z,99.90
2022-08-22T00:02:48.856Z,99.90
2022-08-22T00:02:54.354Z,99.90
2022-08-22T00:04:04.151Z,99.90
2022-08-22T00:07:08.390Z,99.90
2022-08-22T00:09:42.767Z,99.90
2022-08-22T00:12:19.242Z,99.90
2022-08-22T00:14:56.458Z,99.90
2022-08-22T00:17:29.114Z,99.90
2022-08-22T00:20:28.095Z,99.90
2022-08-22T00:23:09.264Z,99.90
2022-08-22T00:25:58.306Z,99.90
2022-08-22T00:29:03.159Z,99.90
2022-08-22T00:31:35.379Z,99.90
2022-08-22T00:34:15.523Z,99.90
2022-08-22T00:37:04.010Z,99.90
2022-08-22T00:39:45.045Z,99.90
2022-08-22T00:42:36.582Z,99.90
2022-08-22T00:45:14.557Z,99.90
2022-08-22T00:47:59.549Z,99.90
2022-08-22T00:50:57.417Z,99.90
2022-08-22T00:53:48.635Z,99.90
2022-08-22T00:56:24.034Z,99.90
2022-08-22T00:59:29.771Z,99.90
2022-08-22T01:02:29.466Z,99.90
2022-08-22T01:05:27.658Z,99.90
2022-08-22T01:08:36.247Z,99.90
2022-08-22T01:11:27.209Z,99.90
2022-08-22T01:13:56.956Z,99.90
2022-08-22T01:16:35.906Z,99.90
2022-08-22T01:19:20.687Z,99.90
2022-08-22T01:22:16.359Z,99.90
2022-08-22T01:25:21.902Z,99.90
2022-08-22T01:28:10.553Z,99.90
2022-08-22T01:31:23.482Z,99.90
2022-08-22T01:34:29.923Z,99.90
2022-08-22T01:37:29.638Z,99.90
2022-08-22T01:40:34.717Z,99.90
2022-08-22T01:43:16.777Z,99.90
2022-08-22T01:46:12.298Z,99.90
2022-08-22T01:48:51.504Z,99.90
2022-08-22T01:51:28.860Z,99.90
2022-08-22T01:54:04.579Z,99.90
2022-08-22T01:56:43.371Z,99.90
2022-08-22T01:59:22.004Z,99.90
2022-08-22T02:02:13.235Z,99.90
2022-08-22T02:04:47.212Z,99.90
2022-08-22T02:07:41.475Z,99.90
2022-08-22T02:10:35.936Z,99.90
2022-08-22T02:13:34.509Z,99.90
2022-08-22T02:16:11.438Z,99.90
2022-08-22T02:18:57.413Z,99.90
2022-08-22T02:21:41.416Z,99.90
2022-08-22T02:24:43.370Z,99.90
2022-08-22T02:27:25.610Z,99.90
2022-08-22T02:30:05.521Z,99.90
2022-08-22T02:32:41.098Z,99.90
2022-08-22T02:35:25.205Z,99.90
2022-08-22T02:38:24.234Z,99.90
2022-08-22T02:41:09.671Z,99.90
2022-08-22T02:43:52.259Z,99.90
2022-08-22T02:46:51.957Z,99.90
2022-08-22T02:50:03.721Z,99.90
2022-08-22T02:53:12.470Z,99.90
2022-08-22T02:56:14.916Z,99.90
2022-08-22T02:59:05.026Z,99.90
2022-08-22T03:01:31.708Z,99.90
2022-08-22T03:04:17.963Z,99.90
2022-08-22T03:07:00.765Z,99.90
2022-08-22T03:09:33.632Z,99.90
2022-08-22T03:12:32.136Z,99.90
2022-08-22T03:15:06.366Z,99.90
2022-08-22T03:17:45.567Z,99.90
2022-08-22T03:20:20.171Z,99.90
2022-08-22T03:23:02.383Z,99.90
2022-08-22T03:25:50.750Z,99.90
2022-08-22T03:28:27.423Z,99.90
2022-08-22T03:31:12.075Z,99.90
2022-08-22T03:33:38.853Z,99.90
2022-08-22T03:36:28.295Z,99.90
2022-08-22T03:39:17.131Z,99.90
2022-08-22T03:42:18.142Z,99.90
2022-08-22T03:45:07.189Z,99.90
2022-08-22T03:47:36.749Z,99.90
2022-08-22T03:51:02.635Z,99.90
2022-08-22T03:53:41.283Z,99.90
2022-08-22T03:56:34.198Z,99.90
2022-08-22T03:59:29.708Z,99.90
2022-08-22T04:02:24.806Z,99.90
2022-08-22T04:05:04.138Z,99.90
2022-08-22T04:07:52.782Z,99.90
2022-08-22T04:11:04.104Z,99.90
2022-08-22T04:13:53.705Z,99.90
2022-08-22T04:16:39.158Z,99.90
2022-08-22T04:19:46.924Z,99.90
2022-08-22T04:22:22.737Z,99.90
2022-08-22T04:25:12.898Z,99.90
2022-08-22T04:27:58.417Z,99.90
2022-08-22T04:30:38.181Z,99.90
2022-08-22T04:33:17.605Z,99.90
2022-08-22T04:36:05.197Z,99.90
2022-08-22T04:38:44.367Z,99.90
2022-08-22T04:41:42.787Z,99.90
2022-08-22T04:44:24.090Z,99.90
2022-08-22T04:47:03.490Z,99.90
2022-08-22T04:49:38.755Z,99.90
2022-08-22T04:52:24.409Z,99.90
2022-08-22T04:55:24.424Z,99.90
2022-08-22T04:57:51.145Z,99.90
2022-08-22T05:00:18.446Z,99.90
2022-08-22T05:02:51.196Z,99.90
2022-08-22T05:05:25.661Z,99.90
2022-08-22T05:07:56.532Z,99.90
2022-08-22T05:10:26.653Z,99.90
2022-08-22T05:13:00.435Z,99.90
2022-08-22T05:15:33.475Z,99.90
2022-08-22T05:18:06.486Z,99.90
2022-08-22T05:20:34.759Z,99.90
2022-08-22T05:23:17.881Z,99.90
2022-08-22T05:25:47.197Z,99.90
2022-08-22T05:28:22.947Z,99.90
2022-08-22T05:30:51.264Z,99.90
2022-08-22T05:33:35.204Z,99.90
2022-08-22T05:36:08.186Z,99.90
2022-08-22T05:38:41.238Z,99.90
2022-08-22T05:41:11.742Z,99.90
2022-08-22T05:43:43.200Z,99.90
2022-08-22T05:46:27.134Z,99.90
2022-08-22T05:48:59.917Z,99.90
2022-08-22T05:52:19.454Z,99.90
2022-08-22T05:54:57.378Z,99.90
2022-08-22T05:57:38.097Z,99.90
2022-08-22T06:00:19.033Z,99.90
2022-08-22T06:03:25.612Z,99.90
2022-08-22T06:05:57.783Z,99.90
2022-08-22T06:08:34.920Z,99.90
2022-08-22T06:11:12.202Z,99.90
2022-08-22T06:13:47.395Z,99.90
2022-08-22T06:16:28.843Z,99.90
2022-08-22T06:18:57.583Z,99.90
2022-08-22T06:21:39.259Z,99.90
2022-08-22T06:24:10.398Z,99.90
2022-08-22T06:26:46.091Z,99.90
2022-08-22T06:29:29.297Z,99.90
2022-08-22T06:31:57.696Z,99.90
2022-08-22T06:34:28.762Z,99.90
2022-08-22T06:36:58.618Z,99.90
2022-08-22T06:39:31.079Z,99.90
2022-08-22T06:42:28.195Z,99.90
2022-08-22T06:45:07.682Z,99.90
2022-08-22T06:47:50.247Z,99.90
2022-08-22T06:50:38.977Z,99.90
2022-08-22T06:53:24.643Z,99.90
2022-08-22T06:55:57.835Z,99.90
2022-08-22T06:58:34.123Z,99.90
2022-08-22T07:01:12.192Z,99.90
2022-08-22T07:03:49.403Z,99.90
2022-08-22T07:06:19.169Z,99.90
2022-08-22T07:08:52.324Z,99.90
2022-08-22T07:11:27.504Z,99.90
2022-08-22T07:13:59.961Z,99.90
2022-08-22T07:16:45.294Z,99.90
2022-08-22T07:19:30.530Z,99.90
2022-08-22T07:21:59.123Z,99.90
2022-08-22T07:24:31.331Z,99.90
2022-08-22T07:27:18.399Z,99.90
2022-08-22T07:30:10.067Z,99.90
2022-08-22T07:32:58.830Z,99.90
2022-08-22T07:35:53.768Z,99.90
2022-08-22T07:38:30.701Z,99.90
2022-08-22T07:41:03.852Z,99.90
2022-08-22T07:43:47.974Z,99.90
2022-08-22T07:46:35.500Z,99.90
2022-08-22T07:49:16.482Z,99.90
2022-08-22T07:51:47.341Z,99.90
2022-08-22T07:54:19.425Z,99.90
2022-08-22T07:56:57.591Z,99.90
2022-08-22T07:59:27.204Z,99.90
2022-08-22T08:01:59.691Z,99.90
2022-08-22T08:04:31.237Z,99.90
2022-08-22T08:07:01.013Z,99.90
2022-08-22T08:09:32.883Z,99.90
2022-08-22T08:12:02.735Z,99.90
2022-08-22T08:14:30.775Z,99.90
2022-08-22T08:17:19.062Z,99.90
2022-08-22T08:19:47.265Z,99.90
2022-08-22T08:22:21.266Z,99.90
2022-08-22T08:24:49.801Z,99.90
2022-08-22T08:27:41.177Z,99.00
2022-08-22T08:30:17.145Z,99.90
2022-08-22T08:32:57.560Z,98.80
2022-08-22T08:36:03.495Z,99.00
2022-08-22T08:38:58.694Z,98.70
2022-08-22T08:41:28.248Z,97.70
2022-08-22T08:44:19.213Z,95.60
2022-08-22T08:47:23.455Z,94.60
2022-08-22T08:50:25.103Z,94.90
2022-08-22T08:53:13.728Z,95.60
2022-08-22T08:56:02.234Z,94.80
2022-08-22T08:58:35.088Z,94.40
2022-08-22T09:01:19.518Z,93.00
2022-08-22T09:04:01.198Z,92.20
2022-08-22T09:06:42.529Z,91.00
2022-08-22T09:09:21.703Z,91.30
2022-08-22T09:12:01.559Z,91.50
2022-08-22T09:14:49.227Z,91.40
2022-08-22T09:17:28.818Z,90.80
2022-08-22T09:20:19.362Z,90.60
2022-08-22T09:23:10.100Z,90.00
2022-08-22T09:25:55.996Z,88.10
2022-08-22T09:28:47.622Z,88.40
2022-08-22T09:31:47.725Z,89.70
2022-08-22T09:34:29.543Z,87.70
2022-08-22T09:37:20.122Z,87.20
2022-08-22T09:42:59.228Z,86.30
2022-08-22T09:45:40.447Z,89.60
2022-08-22T09:48:10.009Z,87.90
2022-08-22T09:51:20.051Z,85.40
2022-08-22T09:54:24.538Z,83.30
2022-08-22T09:57:18.546Z,80.50
2022-08-22T09:59:57.961Z,78.30
2022-08-22T10:02:43.644Z,79.60
2022-08-22T10:05:35.237Z,78.20
2022-08-22T10:08:33.392Z,77.70
2022-08-22T10:11:09.737Z,77.50
2022-08-22T10:14:00.651Z,77.10
2022-08-22T10:17:03.163Z,78.10
2022-08-22T10:19:46.433Z,76.30
2022-08-22T10:22:50.133Z,77.30
2022-08-22T10:25:51.586Z,78.80
2022-08-22T10:28:37.808Z,77.80
2022-08-22T10:31:30.046Z,78.00
2022-08-22T10:34:08.927Z,78.70
2022-08-22T10:36:46.604Z,78.90
2022-08-22T10:39:29.313Z,77.70
2022-08-22T10:42:35.723Z,77.20
2022-08-22T10:45:15.458Z,77.00
2022-08-22T10:47:53.502Z,77.00
2022-08-22T10:50:45.504Z,77.60
2022-08-22T10:53:33.124Z,77.20
2022-08-22T10:56:21.425Z,78.30
2022-08-22T10:59:17.333Z,76.80
2022-08-22T11:02:03.158Z,77.80
2022-08-22T11:04:50.450Z,76.80
2022-08-22T11:07:29.069Z,76.20
2022-08-22T11:10:09.253Z,71.80
2022-08-22T11:12:48.770Z,69.50
2022-08-22T11:15:34.577Z,66.40
2022-08-22T11:18:15.945Z,68.40
2022-08-22T11:21:07.132Z,66.10
2022-08-22T11:24:01.761Z,66.40
2022-08-22T11:26:56.893Z,62.70
2022-08-22T11:29:38.678Z,62.20
2022-08-22T11:32:16.963Z,61.30
2022-08-22T11:34:55.509Z,61.60
2022-08-22T11:37:42.993Z,60.50
2022-08-22T11:40:37.731Z,59.70
2022-08-22T11:43:11.976Z,60.20
2022-08-22T11:45:51.447Z,59.80
2022-08-22T11:48:33.184Z,58.70
2022-08-22T11:51:25.022Z,59.30
2022-08-22T11:54:14.784Z,57.80
2022-08-22T11:56:54.798Z,58.90
2022-08-22T11:59:43.182Z,56.50
2022-08-22T12:02:26.548Z,58.40
2022-08-22T12:04:58.691Z,56.80
2022-08-22T12:07:31.635Z,55.80
2022-08-22T12:10:06.909Z,55.80
2022-08-22T12:13:02.918Z,56.80
2022-08-22T12:15:58.061Z,57.80
2022-08-22T12:18:30.533Z,57.80
2022-08-22T12:21:38.578Z,60.90
2022-08-22T12:24:19.269Z,63.90
2022-08-22T12:27:08.010Z,65.60
2022-08-22T12:29:59.762Z,65.10
2022-08-22T12:32:45.859Z,64.80
2022-08-22T12:35:30.264Z,64.60
2022-08-22T12:38:02.774Z,64.30
2022-08-22T12:40:38.560Z,64.70
2022-08-22T12:43:23.616Z,63.60
2022-08-22T12:46:04.779Z,63.50
2022-08-22T12:48:52.334Z,62.70
2022-08-22T12:51:36.274Z,61.10
2022-08-22T12:54:21.671Z,60.30
2022-08-22T12:57:29.161Z,59.40
2022-08-22T13:00:06.907Z,58.80
2022-08-22T13:02:39.385Z,58.60
2022-08-22T13:05:19.924Z,57.10
2022-08-22T13:07:55.877Z,57.20
2022-08-22T13:10:44.781Z,57.50
2022-08-22T13:13:37.052Z,56.20
2022-08-22T13:16:11.992Z,57.40
2022-08-22T13:19:07.837Z,56.70
2022-08-22T13:21:39.581Z,56.50
2022-08-22T13:24:16.844Z,56.10
2022-08-22T13:26:55.720Z,56.20
2022-08-22T13:29:27.483Z,56.80
2022-08-22T13:32:07.227Z,57.20
2022-08-22T13:34:50.611Z,58.10
2022-08-22T13:37:44.211Z,56.80
2022-08-22T13:40:21.397Z,56.50
2022-08-22T13:42:54.072Z,56.20
2022-08-22T13:45:27.768Z,57.10
2022-08-22T13:47:59.457Z,55.60
2022-08-22T13:50:37.038Z,54.90
2022-08-22T13:53:50.047Z,54.90
2022-08-22T13:56:47.355Z,55.20
2022-08-22T13:59:55.421Z,55.90
2022-08-22T14:02:44.364Z,55.40
2022-08-22T14:05:31.364Z,55.30
2022-08-22T14:08:26.913Z,55.40
2022-08-22T14:11:02.026Z,55.20
2022-08-22T14:13:55.554Z,55.90
2022-08-22T14:16:29.301Z,55.70
2022-08-22T14:19:06.289Z,56.30
2022-08-22T14:21:59.585Z,56.40
2022-08-22T14:24:45.619Z,56.40
2022-08-22T14:27:32.948Z,57.10
2022-08-22T14:30:15.735Z,58.90
2022-08-22T14:32:49.898Z,57.50
2022-08-22T14:35:37.907Z,56.90
2022-08-22T14:38:29.851Z,56.10
2022-08-22T14:41:28.634Z,55.80
2022-08-22T14:44:28.111Z,55.70
2022-08-22T14:47:00.575Z,54.40
2022-08-22T14:49:34.282Z,55.00
2022-08-22T14:52:19.770Z,54.60
2022-08-22T14:54:46.833Z,53.60
2022-08-22T14:57:20.015Z,52.60
2022-08-22T14:59:52.244Z,52.50
2022-08-22T15:02:27.665Z,52.50
2022-08-22T15:04:56.132Z,53.20
2022-08-22T15:07:26.221Z,52.20
2022-08-22T15:10:24.096Z,52.20
2022-08-22T15:12:53.965Z,52.40
2022-08-22T15:15:32.672Z,53.80
2022-08-22T15:18:18.085Z,56.10
2022-08-22T15:20:52.307Z,57.60
2022-08-22T15:23:21.888Z,57.50
2022-08-22T15:26:02.213Z,58.60
2022-08-22T15:28:52.314Z,60.50
2022-08-22T15:31:20.214Z,62.10
2022-08-22T15:33:48.485Z,61.90
2022-08-22T15:36:21.163Z,61.50
2022-08-22T15:38:53.793Z,64.10
2022-08-22T15:41:34.510Z,65.20
2022-08-22T15:44:07.272Z,65.10
2022-08-22T15:46:42.235Z,67.30
2022-08-22T15:49:25.275Z,67.90
2022-08-22T15:51:54.145Z,67.40
2022-08-22T15:54:28.244Z,67.60
2022-08-22T15:57:10.401Z,69.90
2022-08-22T15:59:54.451Z,70.10
2022-08-22T16:02:38.786Z,70.90
2022-08-22T16:05:11.610Z,69.10
2022-08-22T16:07:45.722Z,72.20
2022-08-22T16:10:24.871Z,72.10
2022-08-22T16:13:13.519Z,73.50
2022-08-22T16:15:52.853Z,71.90
2022-08-22T16:18:34.527Z,72.80
2022-08-22T16:21:22.074Z,71.50
2022-08-22T16:23:53.616Z,72.50
2022-08-22T16:26:29.321Z,72.90
2022-08-22T16:29:17.365Z,72.00
2022-08-22T16:31:44.826Z,71.40
2022-08-22T16:34:17.734Z,73.80
2022-08-22T16:37:03.217Z,73.90
2022-08-22T16:39:43.457Z,75.60
2022-08-22T16:42:15.933Z,75.00
2022-08-22T16:45:01.150Z,77.90
2022-08-22T16:47:56.583Z,78.20
2022-08-22T16:50:34.315Z,76.00
2022-08-22T16:53:06.172Z,76.20
2022-08-22T16:55:40.863Z,79.50
2022-08-22T16:58:22.011Z,80.10
2022-08-22T17:00:57.851Z,79.50
2022-08-22T17:03:53.266Z,81.30
2022-08-22T17:06:43.528Z,78.30
2022-08-22T17:09:41.067Z,81.40
2022-08-22T17:12:08.227Z,80.40
2022-08-22T17:14:54.618Z,78.60
2022-08-22T17:17:47.814Z,80.00
2022-08-22T17:20:20.566Z,80.40
2022-08-22T17:23:02.466Z,81.10
2022-08-22T17:26:06.157Z,82.20
2022-08-22T17:28:34.305Z,81.60
2022-08-22T17:31:07.166Z,80.80
2022-08-22T17:34:00.223Z,83.00
2022-08-22T17:36:49.798Z,82.70
2022-08-22T17:39:49.976Z,81.40
2022-08-22T17:42:45.423Z,83.10
2022-08-22T17:45:35.283Z,86.00
2022-08-22T17:48:12.072Z,83.20
2022-08-22T17:50:46.650Z,83.50
2022-08-22T17:53:46.628Z,82.60
2022-08-22T17:56:22.259Z,83.90
2022-08-22T17:59:05.859Z,83.60
2022-08-22T18:02:01.132Z,85.40
2022-08-22T18:04:46.921Z,84.20
2022-08-22T18:07:14.197Z,86.70
2022-08-22T18:10:14.350Z,85.90
2022-08-22T18:12:54.740Z,86.10
2022-08-22T18:15:55.993Z,86.80
2022-08-22T18:18:32.325Z,86.70
2022-08-22T18:21:02.446Z,86.80
2022-08-22T18:23:54.704Z,86.80
2022-08-22T18:26:30.833Z,87.90
2022-08-22T18:29:20.812Z,88.60
2022-08-22T18:32:11.137Z,87.20
2022-08-22T18:35:03.685Z,85.90
2022-08-22T18:37:35.327Z,82.40
2022-08-22T18:40:13.632Z,86.10
2022-08-22T18:43:03.727Z,86.10
2022-08-22T18:45:45.666Z,87.90
2022-08-22T18:48:34.190Z,88.00
2022-08-22T18:51:24.756Z,89.30
2022-08-22T18:54:06.922Z,85.90
2022-08-22T18:57:16.948Z,85.60
2022-08-22T19:00:10.088Z,83.70
2022-08-22T19:02:58.579Z,86.10
2022-08-22T19:05:33.920Z,88.50
2022-08-22T19:08:13.498Z,90.10
2022-08-22T19:11:02.992Z,90.40
2022-08-22T19:13:47.424Z,90.90
2022-08-22T19:17:04.171Z,90.20
2022-08-22T19:20:06.962Z,90.50
2022-08-22T19:22:35.876Z,91.20
2022-08-22T19:25:11.759Z,85.80
2022-08-22T19:28:08.584Z,85.70
2022-08-22T19:30:48.655Z,85.70
2022-08-22T19:33:34.367Z,84.90
2022-08-22T19:36:29.269Z,88.70
2022-08-22T19:39:01.167Z,91.20
2022-08-22T19:41:43.448Z,91.90
2022-08-22T19:44:19.289Z,92.40
2022-08-22T19:47:23.924Z,92.90
2022-08-22T19:49:50.582Z,93.30
2022-08-22T19:52:26.594Z,93.20
2022-08-22T19:55:11.302Z,93.30
2022-08-22T19:57:51.362Z,93.40
2022-08-22T20:00:40.533Z,94.20
2022-08-22T20:03:43.348Z,94.50
2022-08-22T20:06:43.648Z,94.00
2022-08-22T20:09:29.869Z,93.90
2022-08-22T20:12:25.901Z,94.30
2022-08-22T20:14:52.746Z,94.10
2022-08-22T20:17:25.402Z,94.40
2022-08-22T20:22:59.273Z,95.50
2022-08-22T20:25:42.577Z,96.10
2022-08-22T20:28:23.405Z,96.10
2022-08-22T20:31:00.205Z,95.90
2022-08-22T20:33:32.389Z,96.90
2022-08-22T20:36:03.264Z,96.90
2022-08-22T20:38:55.596Z,96.80
2022-08-22T20:41:45.766Z,97.00
2022-08-22T20:44:25.148Z,97.40
2022-08-22T20:47:07.191Z,97.70
2022-08-22T20:49:46.025Z,97.60
2022-08-22T20:52:29.544Z,98.00
2022-08-22T20:55:03.723Z,98.50
2022-08-22T20:57:31.167Z,98.70
2022-08-22T21:00:07.090Z,99.00
2022-08-22T21:02:39.205Z,99.10
2022-08-22T21:05:21.417Z,99.70
2022-08-22T21:08:05.342Z,99.90
2022-08-22T21:10:53.486Z,99.90
2022-08-22T21:13:23.407Z,99.90
2022-08-22T21:15:54.472Z,99.90
2022-08-22T21:18:42.503Z,99.90
2022-08-22T21:21:14.754Z,99.90
2022-08-22T21:23:51.228Z,99.90
2022-08-22T21:26:33.359Z,99.90
2022-08-22T21:29:05.188Z,99.90
2022-08-22T21:31:40.876Z,99.90
2022-08-22T21:34:13.694Z,99.90
2022-08-22T21:36:41.007Z,99.90
2022-08-22T21:39:23.782Z,99.90
2022-08-22T21:42:01.294Z,99.90
2022-08-22T21:44:30.718Z,99.90
2022-08-22T21:47:16.254Z,99.90
2022-08-22T21:50:23.163Z,99.90
2022-08-22T21:52:55.699Z,99.90
2022-08-22T21:55:36.686Z,99.90
2022-08-22T21:58:22.026Z,99.90
2022-08-22T22:01:24.939Z,99.90
2022-08-22T22:03:54.458Z,99.90
2022-08-22T22:06:21.226Z,99.90
2022-08-22T22:08:48.869Z,99.90
2022-08-22T22:11:16.984Z,99.90
2022-08-22T22:13:44.165Z,99.90
2022-08-22T22:16:14.357Z,99.90
2022-08-22T22:18:41.372Z,99.90
2022-08-22T22:21:08.796Z,99.90
2022-08-22T22:23:35.700Z,99.90
2022-08-22T22:26:04.870Z,99.90
2022-08-22T22:28:33.942Z,99.90
2022-08-22T22:31:01.049Z,99.90
2022-08-22T22:33:30.815Z,99.90
2022-08-22T22:36:03.063Z,99.90
2022-08-22T22:38:29.827Z,99.90
2022-08-22T22:40:56.716Z,99.90
2022-08-22T22:43:23.446Z,99.90
2022-08-22T22:45:50.449Z,99.90
2022-08-22T22:48:24.601Z,99.90
2022-08-22T22:50:52.959Z,99.90
2022-08-22T22:53:28.629Z,99.90
2022-08-22T22:56:09.124Z,99.90
2022-08-22T22:58:36.522Z,99.90
2022-08-22T23:01:12.970Z,99.90
2022-08-22T23:03:39.941Z,99.90
2022-08-22T23:06:19.156Z,99.90
2022-08-22T23:08:46.545Z,99.90
2022-08-22T23:11:15.468Z,99.90
2022-08-22T23:13:42.913Z,99.90
2022-08-22T23:16:13.353Z,99.90
2022-08-22T23:18:41.049Z,99.90
2022-08-22T23:21:33.942Z,99.90
2022-08-22T23:24:00.835Z,99.90
2022-08-22T23:26:28.338Z,99.90
2022-08-22T23:28:56.912Z,99.90
2022-08-22T23:31:28.857Z,99.90
2022-08-22T23:33:56.804Z,99.90
2022-08-22T23:36:24.116Z,99.90
2022-08-22T23:38:51.970Z,99.90
2022-08-22T23:41:21.485Z,99.90
2022-08-22T23:43:52.221Z,99.90
2022-08-22T23:46:21.942Z,99.90
2022-08-22T23:48:49.272Z,99.90
2022-08-22T23:51:18.742Z,99.90
2022-08-22T23:53:50.277Z,99.90
2022-08-22T23:56:29.665Z,99.90
2022-08-22T23:58:58.019Z,99.90
